Time;durP1;ratioP1;P1;durP2;ratioP2;P2;SDS_P1;SDS_P2;PMS_P1;PMS_P2;Temp;Humidity;BMP_temperature;BMP_pressure;BME280_temperature;BME280_humidity;BME280_pressure;Samples;Min_cycle;Max_cycle;Signal;HPM_P1;HPM_P2
2024/02/28 00:02:10;;;;;;;11.90;7.18;;;;;;;7.93;72.43;92354.13;2068422;69;20159;-73
2024/02/28 00:04:36;;;;;;;13.13;7.75;;;;;;;7.85;71.76;92351.50;2071375;69;20210;-75
2024/02/28 00:07:04;;;;;;;12.20;7.97;;;;;;;7.76;73.50;92355.84;2071397;69;20168;-73
2024/02/28 00:09:30;;;;;;;16.13;8.23;;;;;;;7.86;72.66;92364.91;2065520;69;20167;-74
2024/02/28 00:11:56;;;;;;;15.30;9.02;;;;;;;7.87;73.29;92368.44;2068297;69;20768;-74
2024/02/28 00:14:21;;;;;;;15.43;9.82;;;;;;;7.94;72.17;92378.72;2071045;69;20176;-73
2024/02/28 00:16:47;;;;;;;17.42;9.27;;;;;;;8.05;71.60;92391.31;2071564;69;20149;-74
2024/02/28 00:19:13;;;;;;;14.40;8.40;;;;;;;8.02;70.35;92392.56;2071458;69;20140;-73
2024/02/28 00:21:40;;;;;;;12.35;7.32;;;;;;;7.97;71.57;92390.78;2068408;69;20582;-74
2024/02/28 00:24:09;;;;;;;12.50;7.63;;;;;;;7.80;72.67;92380.63;2068304;69;20140;-76
2024/02/28 00:26:35;;;;;;;16.08;7.95;;;;;;;7.88;72.78;92403.56;2064003;69;20152;-77
2024/02/28 00:29:00;;;;;;;14.23;8.75;;;;;;;7.80;72.93;92397.41;2071540;69;20155;-76
2024/02/28 00:31:26;;;;;;;15.95;9.20;;;;;;;7.95;72.02;92416.63;2071729;69;20160;-76
2024/02/28 00:33:52;;;;;;;15.00;8.68;;;;;;;7.95;72.09;92411.03;2071586;69;20152;-74
2024/02/28 00:36:18;;;;;;;13.40;8.75;;;;;;;7.86;72.11;92417.44;2071143;69;20270;-74
2024/02/28 00:38:44;;;;;;;16.67;9.23;;;;;;;7.81;72.50;92412.91;2071386;69;20144;-73
2024/02/28 00:41:09;;;;;;;15.75;9.43;;;;;;;7.89;72.21;92419.03;2068415;69;20252;-73
2024/02/28 00:43:35;;;;;;;14.48;9.40;;;;;;;7.94;71.50;92414.44;2068268;69;20152;-73
2024/02/28 00:46:01;;;;;;;18.27;11.55;;;;;;;7.98;71.67;92423.13;2068426;69;20254;-74
2024/02/28 00:48:27;;;;;;;21.27;12.63;;;;;;;7.87;71.57;92430.84;2068127;69;20140;-73
2024/02/28 00:50:53;;;;;;;22.67;12.25;;;;;;;7.96;71.82;92431.38;2071178;69;20203;-73
2024/02/28 00:53:20;;;;;;;23.83;13.02;;;;;;;7.95;72.39;92433.44;2068327;69;20160;-73
2024/02/28 00:55:45;;;;;;;22.02;12.75;;;;;;;7.97;71.80;92436.41;2071807;69;20590;-73
2024/02/28 00:58:11;;;;;;;20.15;12.63;;;;;;;7.87;72.74;92433.63;2068328;69;20160;-73
2024/02/28 01:00:37;;;;;;;24.13;13.75;;;;;;;7.93;72.84;92441.75;2069914;69;20140;-73
2024/02/28 01:03:08;;;;;;;18.50;11.63;;;;;;;7.97;71.65;92442.00;2071582;69;20144;-73
2024/02/28 01:05:34;;;;;;;24.95;14.00;;;;;;;7.90;72.04;92440.13;2071622;69;20251;-75
2024/02/28 01:08:00;;;;;;;26.83;15.73;;;;;;;7.82;72.86;92448.00;2071712;69;20573;-72
2024/02/28 01:10:25;;;;;;;26.27;15.48;;;;;;;7.83;72.17;92441.81;2071746;69;20596;-72
2024/02/28 01:12:51;;;;;;;27.30;16.00;;;;;;;7.72;72.82;92450.84;2068261;69;20133;-72
2024/02/28 01:15:17;;;;;;;30.38;16.50;;;;;;;7.16;75.56;92450.53;2071483;69;20143;-73
2024/02/28 01:17:42;;;;;;;29.90;16.90;;;;;;;7.17;75.25;92440.81;2065148;69;20148;-74
2024/02/28 01:20:09;;;;;;;26.15;15.35;;;;;;;7.40;74.36;92435.41;2071564;69;20144;-73
2024/02/28 01:22:35;;;;;;;25.85;15.00;;;;;;;7.66;72.63;92439.25;2071631;69;20210;-74
2024/02/28 01:25:04;;;;;;;24.40;15.00;;;;;;;7.63;72.99;92434.84;2071434;69;20167;-75
2024/02/28 01:27:29;;;;;;;27.05;16.08;;;;;;;7.74;73.00;92450.97;2068145;69;20561;-75
2024/02/28 01:29:55;;;;;;;24.85;15.57;;;;;;;7.75;72.76;92437.72;2068154;69;20147;-74
2024/02/28 01:32:21;;;;;;;29.42;16.15;;;;;;;7.84;72.34;92442.53;2071539;69;20531;-75
2024/02/28 01:34:46;;;;;;;27.63;17.00;;;;;;;7.79;72.30;92451.97;2071343;69;20223;-76
2024/02/28 01:37:12;;;;;;;29.48;17.05;;;;;;;7.67;73.02;92454.72;2071739;69;20603;-74
2024/02/28 01:39:38;;;;;;;26.75;16.58;;;;;;;7.71;72.31;92443.78;2071707;69;20175;-74
2024/02/28 01:42:04;;;;;;;27.90;15.98;;;;;;;7.72;73.21;92445.25;2071712;69;20239;-75
2024/02/28 01:44:29;;;;;;;30.50;16.88;;;;;;;7.68;72.81;92447.03;2071609;69;20267;-73
2024/02/28 01:46:58;;;;;;;30.23;16.85;;;;;;;7.75;72.07;92457.34;2071610;69;20171;-74
2024/02/28 01:49:24;;;;;;;29.17;16.42;;;;;;;7.77;72.06;92446.25;2068195;69;20152;-74
2024/02/28 01:51:50;;;;;;;27.40;16.50;;;;;;;7.79;71.86;92455.53;2068313;69;20249;-75
2024/02/28 01:54:18;;;;;;;26.33;16.45;;;;;;;7.81;72.81;92454.94;2068253;69;20151;-74
2024/02/28 01:56:44;;;;;;;26.02;15.63;;;;;;;7.83;72.38;92452.25;2068115;69;20148;-74
2024/02/28 01:59:13;;;;;;;25.83;16.20;;;;;;;7.84;72.30;92462.16;2071397;69;20488;-75
2024/02/28 02:01:39;;;;;;;27.45;17.08;;;;;;;7.71;72.60;92463.41;2069825;69;20276;-74
2024/02/28 02:04:05;;;;;;;30.55;18.05;;;;;;;7.33;74.10;92473.47;2071406;69;20684;-74
2024/02/28 02:06:32;;;;;;;32.33;17.42;;;;;;;7.44;73.64;92474.16;2068247;69;20610;-77
2024/02/28 02:08:58;;;;;;;30.65;17.88;;;;;;;7.55;73.23;92471.44;2071204;69;20882;-75
2024/02/28 02:11:24;;;;;;;28.52;17.70;;;;;;;7.55;73.13;92473.50;2065315;69;20164;-74
2024/02/28 02:13:52;;;;;;;31.25;17.90;;;;;;;7.57;73.38;92473.66;2068098;69;20231;-74
2024/02/28 02:16:27;;;;;;;30.38;17.40;;;;;;;7.26;75.06;92477.16;2071330;69;20148;-74
2024/02/28 02:18:53;;;;;;;32.33;18.02;;;;;;;7.29;74.59;92472.44;2071337;69;20230;-74
2024/02/28 02:21:22;;;;;;;31.98;18.83;;;;;;;7.27;75.20;92475.09;2071514;69;20148;-75
2024/02/28 02:23:48;;;;;;;29.23;17.77;;;;;;;7.49;73.51;92464.69;2071317;69;20690;-75
2024/02/28 02:26:14;;;;;;;28.50;17.38;;;;;;;7.59;73.55;92468.91;2068222;69;20140;-73
2024/02/28 02:28:40;;;;;;;29.17;18.02;;;;;;;7.67;73.19;92465.94;2071300;69;20201;-73
2024/02/28 02:31:06;;;;;;;27.60;16.67;;;;;;;7.68;72.61;92484.19;2068087;69;20144;-74
2024/02/28 02:33:32;;;;;;;30.48;17.35;;;;;;;7.63;72.75;92466.38;2068166;69;20196;-73
2024/02/28 02:35:57;;;;;;;28.88;18.30;;;;;;;7.53;72.85;92471.31;2071504;69;20198;-73
2024/02/28 02:38:23;;;;;;;31.63;18.02;;;;;;;7.48;73.59;92477.22;2071141;69;20160;-74
2024/02/28 02:40:53;;;;;;;28.92;17.33;;;;;;;7.51;73.13;92478.81;2071332;69;20233;-75
2024/02/28 02:43:19;;;;;;;30.50;18.27;;;;;;;7.62;72.35;92478.94;2067970;69;20144;-75
2024/02/28 02:45:44;;;;;;;29.05;17.45;;;;;;;7.62;72.32;92475.41;2068114;69;20159;-74
2024/02/28 02:48:10;;;;;;;29.67;17.95;;;;;;;7.61;72.70;92479.53;2071259;69;20150;-75
2024/02/28 02:50:36;;;;;;;29.33;17.58;;;;;;;7.56;73.16;92481.31;2071287;69;20646;-74
2024/02/28 02:53:07;;;;;;;32.78;18.73;;;;;;;7.62;73.51;92495.00;2071057;69;20519;-75
2024/02/28 02:55:32;;;;;;;31.08;18.98;;;;;;;7.36;73.83;92485.53;2071251;69;20254;-74
2024/02/28 02:57:58;;;;;;;34.10;19.00;;;;;;;7.30;74.83;92485.13;2071244;69;20263;-73
2024/02/28 03:00:24;;;;;;;32.50;18.45;;;;;;;6.98;75.88;92470.34;2067681;69;20172;-75
2024/02/28 03:02:50;;;;;;;32.17;19.00;;;;;;;7.33;74.27;92484.66;2066516;69;20511;-76
2024/02/28 03:05:16;;;;;;;33.95;19.92;;;;;;;7.49;72.76;92492.69;2064847;69;20178;-74
2024/02/28 03:07:43;;;;;;;32.65;19.85;;;;;;;7.56;73.29;92484.13;2070974;69;20623;-74
2024/02/28 03:10:10;;;;;;;37.75;20.58;;;;;;;7.53;72.89;92490.19;2071230;69;20164;-74
2024/02/28 03:12:36;;;;;;;31.67;18.75;;;;;;;7.57;72.55;92491.19;2071333;69;20160;-75
2024/02/28 03:18:49;;;;;;;33.05;18.30;;;;;;;7.52;73.46;92494.31;2071291;69;20178;-74
2024/02/28 03:21:16;;;;;;;33.35;18.63;;;;;;;7.55;73.92;92493.09;2067938;69;20154;-74
2024/02/28 03:23:43;;;;;;;32.03;18.67;;;;;;;7.56;73.75;92492.53;2067399;69;20153;-75
2024/02/28 03:26:08;;;;;;;33.22;19.05;;;;;;;7.52;74.19;92489.44;2067865;69;20180;-74
2024/02/28 03:28:34;;;;;;;34.60;18.83;;;;;;;7.54;73.84;92488.84;2067920;69;20156;-75
2024/02/28 03:31:00;;;;;;;38.70;20.42;;;;;;;7.45;74.04;92493.16;2067962;69;20145;-75
2024/02/28 03:33:25;;;;;;;32.97;19.25;;;;;;;7.58;72.30;92494.72;2067505;69;20601;-74
2024/02/28 03:35:51;;;;;;;30.27;18.48;;;;;;;7.66;72.08;92494.56;2067257;69;20148;-75
2024/02/28 03:38:16;;;;;;;32.05;19.00;;;;;;;7.66;72.69;92498.09;2068003;69;20136;-74
2024/02/28 03:44:29;;;;;;;30.50;19.30;;;;;;;7.62;72.98;92492.94;2067777;69;20164;-74
2024/02/28 03:46:55;;;;;;;36.85;19.58;;;;;;;7.58;72.57;92500.31;2067815;69;20140;-75
2024/02/28 03:49:20;;;;;;;33.72;20.48;;;;;;;7.34;73.56;92488.94;2067350;69;20589;-75
2024/02/28 03:51:46;;;;;;;31.35;18.88;;;;;;;7.35;73.52;92476.38;2068133;69;20151;-75
2024/02/28 03:54:12;;;;;;;38.55;19.65;;;;;;;7.61;72.15;92501.94;2067954;69;20516;-76
2024/02/28 03:56:37;;;;;;;31.67;18.58;;;;;;;7.68;72.00;92501.00;2067938;69;20221;-75
2024/02/28 03:59:03;;;;;;;32.63;19.10;;;;;;;7.61;72.88;92511.09;2067293;69;20504;-75
2024/02/28 04:01:29;;;;;;;33.22;19.67;;;;;;;7.58;72.98;92515.06;2068039;69;20173;-75
2024/02/28 04:03:55;;;;;;;33.70;19.08;;;;;;;7.60;71.70;92518.00;2067183;69;20151;-75
2024/02/28 04:06:21;;;;;;;27.70;17.70;;;;;;;7.59;72.08;92513.72;2068031;69;20140;-75
2024/02/28 04:08:46;;;;;;;30.42;17.92;;;;;;;7.62;72.43;92520.94;2067223;69;20148;-75
2024/02/28 04:11:12;;;;;;;31.08;18.25;;;;;;;7.64;72.77;92515.47;2064589;69;20188;-75
2024/02/28 04:13:38;;;;;;;32.35;19.35;;;;;;;7.63;72.84;92521.69;2067867;69;20141;-74
2024/02/28 04:16:03;;;;;;;31.52;18.55;;;;;;;7.61;73.13;92513.88;2067413;69;20156;-75
2024/02/28 04:18:30;;;;;;;33.35;18.98;;;;;;;7.52;73.03;92522.34;2067170;69;20172;-77
2024/02/28 04:24:44;;;;;;;32.92;19.15;;;;;;;7.59;73.05;92529.81;2069899;69;20555;-76
2024/02/28 04:27:11;;;;;;;32.15;19.35;;;;;;;7.50;74.07;92524.97;2067772;69;20608;-75
2024/02/28 04:29:38;;;;;;;36.63;19.40;;;;;;;7.19;75.47;92531.25;2067836;69;20175;-75
2024/02/28 04:32:04;;;;;;;35.20;20.23;;;;;;;7.31;75.20;92537.72;2071460;69;20235;-75
2024/02/28 04:34:29;;;;;;;33.38;19.40;;;;;;;7.07;76.04;92531.16;2071547;69;20155;-76
2024/02/28 04:36:55;;;;;;;35.60;20.65;;;;;;;6.90;76.20;92538.97;2071485;69;20136;-76
2024/02/28 04:39:20;;;;;;;34.92;21.13;;;;;;;6.73;77.28;92540.59;2071726;69;20476;-75
2024/02/28 04:41:46;;;;;;;35.03;20.23;;;;;;;7.11;76.15;92539.84;2068411;69;20163;-74
2024/02/28 04:44:11;;;;;;;40.13;20.65;;;;;;;7.06;76.01;92538.09;2071682;69;20160;-75
2024/02/28 04:46:37;;;;;;;33.45;20.02;;;;;;;6.98;76.34;92534.69;2071858;69;20155;-74
2024/02/28 04:49:03;;;;;;;31.90;19.50;;;;;;;7.03;76.50;92538.53;2068295;69;20143;-74
2024/02/28 04:51:29;;;;;;;37.75;20.85;;;;;;;7.06;76.39;92543.69;2068056;69;20163;-73
2024/02/28 04:53:54;;;;;;;34.13;20.90;;;;;;;6.85;77.44;92541.50;2071746;69;20147;-74
2024/02/28 04:56:20;;;;;;;38.10;20.85;;;;;;;7.03;76.35;92546.91;2071677;69;20193;-74
2024/02/28 04:58:45;;;;;;;33.80;20.02;;;;;;;7.26;74.30;92552.03;2068355;69;20249;-73
2024/02/28 05:01:12;;;;;;;38.55;20.50;;;;;;;7.15;74.99;92553.38;2071743;69;20215;-73
2024/02/28 05:03:37;;;;;;;34.85;20.75;;;;;;;7.24;74.87;92558.22;2071619;69;20167;-77
2024/02/28 05:06:04;;;;;;;33.28;20.45;;;;;;;7.29;74.75;92562.06;2071672;69;20221;-73
2024/02/28 05:08:29;;;;;;;38.85;21.45;;;;;;;7.31;74.41;92567.78;2071762;69;20233;-77
2024/02/28 05:10:55;;;;;;;38.00;21.77;;;;;;;7.02;75.20;92562.25;2071538;69;20160;-75
2024/02/28 05:13:22;;;;;;;34.80;20.60;;;;;;;7.23;75.10;92570.75;2068120;69;20146;-77
2024/02/28 05:19:34;;;;;;;36.55;21.20;;;;;;;7.14;75.00;92569.44;2071627;69;20127;-74
2024/02/28 05:22:01;;;;;;;38.00;21.48;;;;;;;7.14;75.30;92574.28;2065604;69;20132;-74
2024/02/28 05:24:26;;;;;;;39.22;21.77;;;;;;;7.04;75.92;92577.09;2071625;69;20172;-76
2024/02/28 05:26:52;;;;;;;35.78;20.95;;;;;;;6.92;76.45;92576.25;2071420;69;20239;-74
2024/02/28 05:29:17;;;;;;;38.92;21.83;;;;;;;6.73;77.18;92579.03;2071511;69;20206;-75
2024/02/28 05:31:43;;;;;;;38.03;22.08;;;;;;;6.69;77.97;92578.75;2071701;69;20214;-74
2024/02/28 05:34:09;;;;;;;38.90;21.48;;;;;;;7.00;76.06;92578.88;2068338;69;20167;-75
2024/02/28 05:36:35;;;;;;;36.85;21.17;;;;;;;6.72;77.24;92586.69;2071784;69;20144;-75
2024/02/28 05:39:01;;;;;;;37.90;22.55;;;;;;;7.02;76.26;92584.63;2071578;69;20516;-74
2024/02/28 05:41:28;;;;;;;35.78;21.25;;;;;;;7.13;75.83;92595.22;2071559;69;20239;-74
2024/02/28 05:43:54;;;;;;;40.13;21.92;;;;;;;7.18;75.38;92593.44;2071485;69;20572;-74
2024/02/28 05:46:22;;;;;;;38.35;22.58;;;;;;;7.16;75.74;92598.91;2071780;69;20209;-77
2024/02/28 05:48:48;;;;;;;42.53;22.55;;;;;;;7.21;75.68;92607.00;2071307;69;20155;-74
2024/02/28 05:51:14;;;;;;;40.05;22.52;;;;;;;7.33;74.40;92607.13;2068269;69;20172;-74
2024/02/28 05:53:40;;;;;;;34.28;21.50;;;;;;;7.33;74.70;92607.13;2071610;69;20235;-76
2024/02/28 05:59:53;;;;;;;39.97;22.20;;;;;;;7.28;75.03;92613.75;2071687;69;20681;-75
2024/02/28 06:02:19;;;;;;;40.72;22.70;;;;;;;7.12;75.77;92624.56;2071303;69;20187;-75
2024/02/28 06:04:45;;;;;;;36.95;23.23;;;;;;;6.86;76.92;92620.56;2071398;69;20144;-74
2024/02/28 06:07:10;;;;;;;36.35;21.77;;;;;;;6.95;76.28;92625.44;2071544;69;20140;-76
2024/02/28 06:09:36;;;;;;;37.15;22.40;;;;;;;7.09;75.64;92618.06;2071534;69;20133;-75
2024/02/28 06:12:03;;;;;;;40.58;22.88;;;;;;;7.12;74.89;92618.94;2071432;69;20524;-78
2024/02/28 06:14:30;;;;;;;40.15;22.60;;;;;;;7.08;75.00;92630.59;2071583;69;20181;-74
2024/02/28 06:16:55;;;;;;;37.55;22.80;;;;;;;7.07;75.63;92642.38;2067935;69;20139;-74
2024/02/28 06:19:21;;;;;;;42.25;23.77;;;;;;;7.22;73.96;92636.47;2071544;69;20596;-75
2024/02/28 06:21:47;;;;;;;40.13;23.02;;;;;;;7.30;73.77;92642.66;2068266;69;20176;-76
2024/02/28 06:24:13;;;;;;;47.00;28.05;;;;;;;7.11;74.95;92642.69;2071371;69;20547;-77
2024/02/28 06:26:39;;;;;;;63.30;35.88;;;;;;;7.03;76.22;92644.88;2071673;69;20655;-76
2024/02/28 06:29:06;;;;;;;60.28;33.92;;;;;;;7.10;75.18;92652.38;2071553;69;20142;-76
2024/02/28 06:31:32;;;;;;;76.28;38.80;;;;;;;7.03;75.72;92656.09;2071563;69;20156;-75
2024/02/28 06:33:57;;;;;;;61.42;32.55;;;;;;;7.07;75.18;92654.31;2071344;69;20140;-76
2024/02/28 06:36:23;;;;;;;53.90;30.25;;;;;;;7.12;75.01;92658.88;2071512;69;20156;-78
2024/02/28 06:38:49;;;;;;;41.47;24.85;;;;;;;7.08;75.22;92660.66;2071656;69;20772;-74
2024/02/28 06:41:16;;;;;;;45.13;25.20;;;;;;;7.05;75.46;92662.56;2071496;69;20205;-73
2024/02/28 06:43:42;;;;;;;42.40;24.17;;;;;;;7.11;75.33;92663.00;2071455;69;20152;-77
2024/02/28 06:46:07;;;;;;;40.35;23.92;;;;;;;7.16;75.01;92661.25;2068082;69;20307;-75
2024/02/28 06:48:33;;;;;;;41.08;24.17;;;;;;;7.27;74.94;92668.31;2068093;69;20501;-79
2024/02/28 06:50:58;;;;;;;41.05;24.33;;;;;;;7.26;75.04;92672.44;2071597;69;20239;-79
2024/02/28 06:53:26;;;;;;;43.25;24.13;;;;;;;6.85;75.89;92675.06;2071486;69;20247;-77
2024/02/28 06:55:51;;;;;;;42.95;25.27;;;;;;;6.96;76.19;92674.47;2067885;69;20609;-77
2024/02/28 06:58:17;;;;;;;47.75;27.45;;;;;;;7.03;75.75;92681.28;2071428;69;20144;-76
2024/02/28 07:00:43;;;;;;;44.33;26.45;;;;;;;6.88;76.53;92671.09;2071429;69;20132;-75
2024/02/28 07:03:09;;;;;;;47.35;26.48;;;;;;;7.18;75.26;92680.25;2068278;69;20164;-76
2024/02/28 07:05:34;;;;;;;51.22;29.05;;;;;;;6.93;75.90;92674.94;2071379;69;20148;-77
2024/02/28 07:08:00;;;;;;;45.10;26.30;;;;;;;7.12;75.09;92683.34;2071270;69;20196;-78
2024/02/28 07:10:26;;;;;;;40.08;24.23;;;;;;;7.13;74.66;92684.81;2068028;69;20148;-79
2024/02/28 07:12:52;;;;;;;46.28;26.90;;;;;;;6.48;77.19;92682.81;2068148;69;20622;-78
2024/02/28 07:15:21;;;;;;;41.72;25.05;;;;;;;6.53;78.83;92688.13;2068395;69;20584;-79
2024/02/28 07:17:47;;;;;;;42.00;26.08;;;;;;;6.66;77.95;92692.56;2067866;69;20629;-78
2024/02/28 07:20:13;;;;;;;42.90;24.98;;;;;;;6.86;77.10;92702.47;2071362;69;20152;-77
2024/02/28 07:22:39;;;;;;;46.42;25.52;;;;;;;6.92;75.82;92691.00;2071544;69;20171;-76
2024/02/28 07:25:07;;;;;;;49.90;26.30;;;;;;;7.08;76.04;92700.56;2071397;69;20209;-76
2024/02/28 07:27:32;;;;;;;39.88;24.98;;;;;;;7.08;75.41;92699.84;2071033;69;20139;-77
2024/02/28 07:29:58;;;;;;;44.08;26.17;;;;;;;6.94;76.41;92712.78;2071345;69;20148;-76
2024/02/28 07:32:23;;;;;;;47.55;27.08;;;;;;;6.88;76.66;92715.88;2071352;69;20235;-78
2024/02/28 07:34:49;;;;;;;40.38;24.42;;;;;;;6.66;77.66;92722.59;2070447;69;20214;-78
2024/02/28 07:37:14;;;;;;;49.53;25.73;;;;;;;6.53;78.52;92715.34;2070977;69;20592;-78
2024/02/28 07:39:40;;;;;;;42.78;24.70;;;;;;;6.80;77.22;92715.28;2071154;69;20511;-78
2024/02/28 07:42:06;;;;;;;45.28;25.80;;;;;;;7.08;75.95;92719.44;2067818;69;20599;-79
2024/02/28 07:44:31;;;;;;;42.58;24.70;;;;;;;7.18;75.18;92728.56;2071043;69;20562;-79
2024/02/28 07:47:00;;;;;;;42.45;24.52;;;;;;;7.23;75.60;92724.72;2071116;69;20603;-77
2024/02/28 07:49:26;;;;;;;41.63;24.98;;;;;;;7.01;75.13;92715.47;2071221;69;20148;-78
2024/02/28 07:51:51;;;;;;;43.22;25.35;;;;;;;6.99;76.51;92729.28;2068040;69;20190;-79
2024/02/28 07:54:17;;;;;;;41.17;25.08;;;;;;;6.75;77.32;92728.22;2067728;69;20175;-77
2024/02/28 07:56:44;;;;;;;47.55;25.63;;;;;;;6.93;77.15;92731.66;2071365;69;20152;-77
2024/02/28 07:59:09;;;;;;;44.97;25.50;;;;;;;7.13;76.46;92735.19;2071345;69;20686;-77
2024/02/28 08:01:36;;;;;;;50.13;28.35;;;;;;;6.67;77.69;92736.00;2068032;69;20235;-77
2024/02/28 08:04:02;;;;;;;45.53;25.85;;;;;;;7.14;76.39;92743.00;2071270;69;20221;-78
2024/02/28 08:06:27;;;;;;;43.80;25.35;;;;;;;7.43;75.41;92735.97;2068169;69;20152;-77
2024/02/28 08:08:53;;;;;;;44.92;25.13;;;;;;;7.51;74.59;92745.66;2071937;69;20175;-75
2024/02/28 08:11:19;;;;;;;41.72;25.77;;;;;;;7.52;74.62;92740.81;2068530;69;20172;-78
2024/02/28 08:17:32;;;;;;;43.83;25.45;;;;;;;7.75;74.04;92743.16;2071886;69;20127;-78
2024/02/28 08:19:57;;;;;;;45.42;25.35;;;;;;;7.79;73.93;92751.84;2071777;69;20125;-80
2024/02/28 08:22:24;;;;;;;47.38;25.50;;;;;;;7.87;72.90;92749.63;2071887;69;20152;-77
2024/02/28 08:24:53;;;;;;;50.00;25.73;;;;;;;7.82;73.64;92761.88;2068555;69;20225;-78
2024/02/28 08:27:20;;;;;;;53.08;27.35;;;;;;;7.82;73.62;92762.59;2071974;69;20148;-78
2024/02/28 08:29:47;;;;;;;45.28;24.83;;;;;;;7.85;73.16;92766.31;2071857;69;20160;-77
2024/02/28 08:32:13;;;;;;;49.72;25.55;;;;;;;7.90;73.47;92768.81;2068501;69;20568;-76
2024/02/28 08:34:38;;;;;;;52.97;24.95;;;;;;;8.03;72.58;92772.47;2071809;69;20156;-75
2024/02/28 08:37:04;;;;;;;50.08;27.40;;;;;;;8.04;72.39;92771.88;2071536;69;20167;-75
2024/02/28 08:39:29;;;;;;;44.42;25.75;;;;;;;8.07;72.37;92769.97;2071791;69;20135;-73
2024/02/28 08:41:55;;;;;;;44.92;26.77;;;;;;;7.57;73.93;92773.41;2071660;69;20607;-76
2024/02/28 08:44:21;;;;;;;46.22;26.60;;;;;;;7.96;72.86;92776.16;2071684;69;20145;-76
2024/02/28 08:46:48;;;;;;;42.03;24.83;;;;;;;8.11;71.19;92771.00;2071776;69;20132;-75
2024/02/28 08:49:14;;;;;;;42.45;26.30;;;;;;;7.60;73.85;92783.41;2068415;69;20131;-77
2024/02/28 08:55:28;;;;;;;50.65;26.88;;;;;;;7.94;72.82;92782.38;2071835;69;20618;-78
2024/02/28 08:57:54;;;;;;;43.53;25.63;;;;;;;8.13;71.75;92782.34;2068584;69;20148;-75
2024/02/28 09:00:19;;;;;;;45.33;26.42;;;;;;;7.99;72.78;92791.81;2068530;69;20267;-76
2024/02/28 09:02:45;;;;;;;43.53;24.38;;;;;;;7.77;73.41;92782.53;2071575;69;20148;-74
2024/02/28 09:05:12;;;;;;;42.45;25.38;;;;;;;7.76;72.51;92783.88;2068327;69;20218;-74
2024/02/28 09:07:38;;;;;;;42.45;25.50;;;;;;;7.67;73.68;92793.00;2068248;69;20603;-78
2024/02/28 09:10:05;;;;;;;43.13;25.80;;;;;;;7.63;74.15;92796.25;2071682;69;20148;-76
2024/02/28 09:12:32;;;;;;;40.85;24.65;;;;;;;8.17;72.17;92795.91;2071633;69;20526;-77
2024/02/28 09:14:58;;;;;;;45.30;26.20;;;;;;;7.93;72.76;92805.41;2071693;69;20603;-76
2024/02/28 09:17:24;;;;;;;44.05;26.30;;;;;;;8.31;71.44;92810.19;2071646;69;20190;-75
2024/02/28 09:19:51;;;;;;;44.33;25.27;;;;;;;8.25;71.82;92806.97;2071600;69;20132;-75
2024/02/28 09:22:17;;;;;;;44.13;25.42;;;;;;;8.31;71.27;92818.63;2071512;69;20240;-75
2024/02/28 09:24:42;;;;;;;41.55;25.33;;;;;;;8.32;71.25;92809.59;2071611;69;20512;-76
2024/02/28 09:27:08;;;;;;;47.90;26.77;;;;;;;8.25;71.46;92813.31;2071582;69;20176;-75
2024/02/28 09:29:35;;;;;;;43.60;25.48;;;;;;;8.55;70.29;92811.19;2071900;69;20148;-74
2024/02/28 09:32:01;;;;;;;45.78;25.08;;;;;;;8.69;70.12;92819.88;2068320;69;20136;-75
2024/02/28 09:34:26;;;;;;;45.67;26.85;;;;;;;8.71;69.80;92825.63;2071663;69;20607;-75
2024/02/28 09:40:40;;;;;;;46.72;27.33;;;;;;;8.25;70.74;92829.41;2071694;69;20226;-76
2024/02/28 09:43:15;;;;;;;47.00;26.95;;;;;;;8.29;70.77;92844.47;2068307;69;20203;-74
2024/02/28 09:45:41;;;;;;;47.25;26.85;;;;;;;8.71;69.59;92834.78;2071589;69;20148;-75
2024/02/28 09:48:09;;;;;;;45.80;27.67;;;;;;;8.28;71.47;92842.97;2071543;69;20226;-77
2024/02/28 09:50:35;;;;;;;46.40;26.25;;;;;;;8.06;71.02;92846.97;2068321;69;20237;-75
2024/02/28 09:53:01;;;;;;;47.70;26.42;;;;;;;8.37;70.81;92849.94;2071608;69;20586;-75
2024/02/28 09:55:26;;;;;;;47.88;27.30;;;;;;;8.52;70.68;92852.41;2071775;69;20164;-76
2024/02/28 09:57:53;;;;;;;51.38;27.27;;;;;;;8.68;70.01;92850.00;2071612;69;20148;-78
2024/02/28 10:00:20;;;;;;;48.35;28.17;;;;;;;9.00;69.51;92851.50;2071720;69;20186;-76
2024/02/28 10:02:50;;;;;;;45.67;26.23;;;;;;;8.91;69.65;92849.47;2071638;69;20155;-78
2024/02/28 10:05:18;;;;;;;45.42;26.20;;;;;;;8.86;69.59;92847.72;2071542;69;20646;-77
2024/02/28 10:07:49;;;;;;;45.20;26.30;;;;;;;8.77;68.92;92852.03;2068391;69;20136;-77
2024/02/28 10:10:16;;;;;;;45.88;27.27;;;;;;;8.68;69.56;92847.19;2071558;69;20247;-78
2024/02/28 10:12:42;;;;;;;42.67;26.27;;;;;;;8.85;69.35;92855.41;2071342;69;20197;-78
2024/02/28 10:15:10;;;;;;;45.05;25.33;;;;;;;9.28;68.81;92854.78;2068457;69;20136;-76
2024/02/28 10:17:36;;;;;;;45.75;25.05;;;;;;;9.48;68.05;92855.41;2071912;69;20136;-78
2024/02/28 10:20:04;;;;;;;51.28;28.73;;;;;;;8.85;69.00;92849.06;2071614;69;20572;-76
2024/02/28 10:22:36;;;;;;;47.15;26.73;;;;;;;8.84;69.49;92847.56;2068515;69;20261;-76
2024/02/28 10:25:03;;;;;;;45.45;26.85;;;;;;;9.02;69.04;92853.72;2068339;69;20164;-75
2024/02/28 10:27:32;;;;;;;43.92;25.77;;;;;;;9.27;67.85;92854.06;2065608;69;20151;-76
2024/02/28 10:29:58;;;;;;;45.63;26.52;;;;;;;9.64;67.01;92848.81;2071494;69;20260;-76
2024/02/28 10:32:23;;;;;;;44.58;26.05;;;;;;;9.52;67.19;92850.06;2068295;69;20184;-76
2024/02/28 10:34:49;;;;;;;45.95;26.77;;;;;;;9.85;67.11;92853.69;2071484;69;20589;-78
2024/02/28 10:37:17;;;;;;;46.47;26.40;;;;;;;10.06;65.98;92858.56;2068444;69;20162;-78
2024/02/28 10:39:43;;;;;;;43.90;26.40;;;;;;;9.34;67.09;92850.31;2071755;69;20148;-77
2024/02/28 10:42:11;;;;;;;47.08;26.60;;;;;;;9.42;67.89;92845.22;2071879;69;20144;-76
2024/02/28 10:44:38;;;;;;;44.17;26.13;;;;;;;9.08;68.56;92846.47;2071616;69;20239;-78
2024/02/28 10:47:07;;;;;;;43.60;25.10;;;;;;;9.40;68.56;92850.00;2071722;69;20147;-77
2024/02/28 10:49:34;;;;;;;44.65;25.90;;;;;;;9.93;66.61;92840.16;2071648;69;20148;-77
2024/02/28 10:52:03;;;;;;;51.30;26.95;;;;;;;9.33;66.77;92843.22;2068364;69;20170;-76
2024/02/28 10:54:30;;;;;;;45.90;26.05;;;;;;;9.61;66.71;92846.44;2071676;69;20146;-76
2024/02/28 10:56:57;;;;;;;46.13;25.92;;;;;;;9.53;67.42;92843.09;2071485;69;20616;-77
2024/02/28 10:59:25;;;;;;;46.10;26.85;;;;;;;9.71;66.61;92838.69;2071593;69;20220;-75
2024/02/28 11:01:51;;;;;;;47.35;27.65;;;;;;;9.77;66.94;92844.00;2071820;69;20175;-79
2024/02/28 11:04:17;;;;;;;43.40;26.15;;;;;;;10.12;65.75;92850.50;2068305;69;20232;-79
2024/02/28 11:10:33;;;;;;;46.17;27.10;;;;;;;10.52;65.31;92836.84;2071692;69;20243;-77
2024/02/28 11:12:59;;;;;;;45.92;26.98;;;;;;;10.53;65.02;92841.88;2071684;69;20142;-78
2024/02/28 11:15:27;;;;;;;43.85;26.60;;;;;;;10.68;63.26;92830.16;2071662;69;20136;-76
2024/02/28 11:17:52;;;;;;;40.83;25.83;;;;;;;10.37;65.49;92833.16;2068290;69;20179;-76
2024/02/28 11:20:18;;;;;;;42.80;26.95;;;;;;;9.76;66.93;92832.00;2071632;69;20172;-77
2024/02/28 11:26:31;;;;;;;41.78;25.00;;;;;;;10.86;63.97;92839.03;2069828;69;20151;-79
2024/02/28 11:28:57;;;;;;;41.90;25.42;;;;;;;11.37;63.03;92833.66;2071626;69;20144;-77
2024/02/28 11:31:22;;;;;;;44.70;25.05;;;;;;;11.69;62.29;92828.47;2071512;69;20231;-77
2024/02/28 11:33:48;;;;;;;44.53;26.35;;;;;;;11.76;61.64;92827.44;2068154;69;20140;-77
2024/02/28 11:36:15;;;;;;;41.53;25.42;;;;;;;11.68;61.66;92818.50;2071637;69;20140;-77
2024/02/28 11:38:41;;;;;;;42.97;24.88;;;;;;;11.90;59.98;92821.94;2071548;69;20160;-77
2024/02/28 11:45:00;;;;;;;41.67;23.95;;;;;;;13.52;57.00;92811.69;2072129;69;20211;-77
2024/02/28 11:47:25;;;;;;;37.75;23.48;;;;;;;13.84;55.48;92815.44;2072080;69;20227;-74
2024/02/28 11:49:51;;;;;;;42.45;23.38;;;;;;;12.90;56.82;92807.72;2072132;69;20152;-75
2024/02/28 11:52:17;;;;;;;36.97;22.05;;;;;;;14.10;55.54;92808.25;2072049;69;20148;-76
2024/02/28 11:54:42;;;;;;;39.53;22.90;;;;;;;15.04;54.07;92812.75;2072099;69;20151;-76
2024/02/28 11:57:13;;;;;;;38.08;22.90;;;;;;;15.75;51.62;92813.09;2072064;69;20140;-75
2024/02/28 11:59:39;;;;;;;37.97;22.48;;;;;;;14.81;53.62;92802.47;2072003;69;20550;-75
2024/02/28 12:02:13;;;;;;;33.15;20.70;;;;;;;15.68;51.57;92794.34;2068690;69;20144;-77